createdAt,value
2023-01-01T00:01:32.312Z,8.20
2023-01-01T00:04:12.985Z,6.10
2023-01-01T00:06:42.832Z,3.70
2023-01-01T00:09:30.201Z,5.10
2023-01-01T00:11:58.452Z,8.80
2023-01-01T00:14:37.136Z,10.50
2023-01-01T00:17:06.699Z,4.40
2023-01-01T00:19:36.099Z,5.10
2023-01-01T00:22:52.639Z,7.60
2023-01-01T00:25:09.196Z,7.90
2023-01-01T00:27:50.124Z,7.90
2023-01-01T00:30:22.557Z,5.90
2023-01-01T00:32:54.607Z,3.70
2023-01-01T00:35:26.095Z,13.70
2023-01-01T00:37:56.182Z,8.60
2023-01-01T00:40:33.574Z,9.00
2023-01-01T00:43:01.935Z,13.70
2023-01-01T00:45:37.196Z,8.50
2023-01-01T00:48:20.215Z,9.60
2023-01-01T00:51:01.315Z,5.10
2023-01-01T00:53:35.544Z,4.50
2023-01-01T00:56:19.072Z,8.50
2023-01-01T01:01:35.051Z,5.60
2023-01-01T01:06:44.475Z,6.40
2023-01-01T01:09:15.299Z,4.60
2023-01-01T01:11:50.601Z,5.50
2023-01-01T01:14:26.260Z,8.40
2023-01-01T01:16:55.680Z,4.40
2023-01-01T01:19:27.853Z,3.50
2023-01-01T01:21:56.088Z,5.10
2023-01-01T01:24:24.430Z,4.50
2023-01-01T01:26:54.060Z,3.80
2023-01-01T01:29:24.188Z,5.10
2023-01-01T01:31:53.334Z,6.50
2023-01-01T01:34:27.903Z,4.70
2023-01-01T01:36:56.999Z,3.30
2023-01-01T01:39:25.335Z,3.70
2023-01-01T01:41:53.699Z,3.20
2023-01-01T01:44:47.710Z,3.40
2023-01-01T01:47:31.377Z,3.20
2023-01-01T01:50:11.806Z,7.50
2023-01-01T01:52:57.356Z,6.90
2023-01-01T01:55:30.442Z,3.10
2023-01-01T01:57:58.893Z,3.50
2023-01-01T02:00:27.326Z,3.10
2023-01-01T02:03:06.408Z,4.10
2023-01-01T02:05:37.813Z,3.50
2023-01-01T02:08:07.220Z,5.50
2023-01-01T02:10:36.583Z,4.10
2023-01-01T02:13:05.069Z,3.40
2023-01-01T02:15:49.730Z,10.20
2023-01-01T02:18:26.204Z,5.70
2023-01-01T02:21:08.443Z,6.00
2023-01-01T02:23:55.516Z,5.70
2023-01-01T02:26:43.786Z,4.10
2023-01-01T02:29:38.674Z,4.50
2023-01-01T02:32:20.755Z,9.00
2023-01-01T02:35:26.098Z,7.30
2023-01-01T02:37:59.591Z,7.70
2023-01-01T02:40:29.526Z,6.40
2023-01-01T02:42:58.950Z,7.00
2023-01-01T02:45:27.302Z,6.50
2023-01-01T02:47:55.632Z,8.40
2023-01-01T02:50:29.027Z,6.60
2023-01-01T02:53:24.742Z,8.20
2023-01-01T02:59:15.587Z,6.10
2023-01-01T03:02:02.357Z,5.70
2023-01-01T03:04:46.211Z,5.30
2023-01-01T03:07:40.652Z,8.00
2023-01-01T03:10:18.876Z,10.50
2023-01-01T03:12:57.166Z,13.30
2023-01-01T03:16:05.820Z,8.80
2023-01-01T03:18:41.640Z,9.00
2023-01-01T03:23:50.234Z,13.50
2023-01-01T03:26:21.049Z,8.80
2023-01-01T03:28:59.096Z,4.70
2023-01-01T03:31:27.568Z,4.70
2023-01-01T03:34:10.802Z,4.80
2023-01-01T03:36:44.407Z,5.80
2023-01-01T03:39:27.803Z,5.60
2023-01-01T03:42:34.802Z,5.20
2023-01-01T03:45:20.233Z,5.80
2023-01-01T03:47:49.034Z,4.90
2023-01-01T03:50:20.373Z,5.50
2023-01-01T03:52:58.207Z,5.50
2023-01-01T03:55:32.695Z,5.20
2023-01-01T03:58:23.641Z,5.60
2023-01-01T04:01:17.644Z,6.30
2023-01-01T04:03:47.939Z,4.60
2023-01-01T04:06:16.619Z,4.10
2023-01-01T04:08:47.324Z,4.30
2023-01-01T04:11:40.807Z,4.70
2023-01-01T04:14:10.174Z,4.80
2023-01-01T04:16:38.718Z,5.20
2023-01-01T04:19:07.165Z,3.50
2023-01-01T04:21:35.463Z,4.40
2023-01-01T04:24:04.085Z,4.60
2023-01-01T04:26:32.348Z,3.40
2023-01-01T04:29:00.665Z,3.80
2023-01-01T04:31:28.996Z,3.90
2023-01-01T04:33:57.524Z,4.20
2023-01-01T04:36:28.456Z,4.30
2023-01-01T04:38:57.027Z,4.40
2023-01-01T04:41:25.294Z,4.70
2023-01-01T04:43:53.531Z,3.50
2023-01-01T04:46:23.185Z,3.70
2023-01-01T04:48:52.092Z,3.90
2023-01-01T04:51:22.585Z,4.40
2023-01-01T04:53:50.928Z,4.30
2023-01-01T04:56:21.693Z,5.10
2023-01-01T04:58:50.242Z,5.30
2023-01-01T05:01:25.419Z,4.90
2023-01-01T05:03:55.013Z,5.00
2023-01-01T05:06:25.814Z,5.20
2023-01-01T05:08:55.883Z,5.70
2023-01-01T05:11:27.760Z,4.90
2023-01-01T05:14:00.762Z,5.10
2023-01-01T05:16:31.904Z,5.50
2023-01-01T05:19:00.442Z,5.50
2023-01-01T05:21:32.174Z,5.40
2023-01-01T05:24:03.584Z,5.30
2023-01-01T05:26:34.943Z,5.80
2023-01-01T05:29:04.109Z,5.90
2023-01-01T05:31:36.230Z,5.90
2023-01-01T05:36:38.943Z,6.90
2023-01-01T05:39:13.149Z,5.50
2023-01-01T05:41:42.402Z,5.50
2023-01-01T05:44:11.987Z,5.90
2023-01-01T05:46:40.406Z,6.00
2023-01-01T05:49:12.337Z,5.20
2023-01-01T05:56:37.856Z,5.30
2023-01-01T05:59:06.251Z,5.60
2023-01-01T06:01:38.693Z,6.20
2023-01-01T06:04:10.406Z,6.10
2023-01-01T06:06:38.750Z,5.90
2023-01-01T06:09:12.186Z,6.20
2023-01-01T06:11:40.535Z,5.50
2023-01-01T06:14:08.919Z,5.20
2023-01-01T06:16:38.123Z,5.80
2023-01-01T06:19:06.493Z,5.20
2023-01-01T06:21:35.061Z,5.40
2023-01-01T06:24:03.573Z,6.10
2023-01-01T06:26:33.330Z,6.00
2023-01-01T06:29:03.321Z,6.60
2023-01-01T06:31:40.127Z,5.60
2023-01-01T06:34:09.592Z,6.40
2023-01-01T06:36:38.082Z,5.80
2023-01-01T06:39:06.707Z,5.80
2023-01-01T06:41:35.086Z,5.90
2023-01-01T06:44:03.575Z,6.10
2023-01-01T06:46:37.084Z,5.20
2023-01-01T06:49:10.190Z,5.80
2023-01-01T06:51:44.132Z,6.30
2023-01-01T06:54:12.581Z,6.00
2023-01-01T06:56:40.835Z,5.50
2023-01-01T06:59:09.274Z,6.00
2023-01-01T07:01:44.036Z,5.40
2023-01-01T07:04:16.133Z,5.60
2023-01-01T07:06:44.619Z,6.10
2023-01-01T07:09:13.058Z,6.10
2023-01-01T07:11:41.353Z,5.40
2023-01-01T07:14:09.769Z,5.90
2023-01-01T07:16:38.118Z,6.20
2023-01-01T07:19:06.474Z,5.50
2023-01-01T07:21:37.696Z,6.50
2023-01-01T07:24:07.057Z,7.10
2023-01-01T07:26:35.364Z,6.60
2023-01-01T07:29:07.858Z,6.00
2023-01-01T07:31:41.532Z,6.80
2023-01-01T07:34:14.973Z,5.90
2023-01-01T07:36:43.614Z,6.00
2023-01-01T07:39:12.358Z,7.20
2023-01-01T07:41:40.873Z,6.60
2023-01-01T07:44:09.393Z,5.80
2023-01-01T07:46:37.978Z,5.50
2023-01-01T07:49:06.382Z,5.70
2023-01-01T07:51:35.930Z,6.50
2023-01-01T07:54:07.355Z,7.50
2023-01-01T07:56:36.630Z,7.20
2023-01-01T07:59:08.355Z,7.20
2023-01-01T08:01:38.238Z,6.90
2023-01-01T08:04:07.643Z,6.50
2023-01-01T08:06:38.006Z,7.00
2023-01-01T08:09:06.439Z,5.90
2023-01-01T08:11:34.702Z,5.60
2023-01-01T08:14:03.139Z,6.20
2023-01-01T08:16:31.650Z,5.50
2023-01-01T08:19:00.049Z,6.30
2023-01-01T08:21:28.645Z,6.10
2023-01-01T08:23:57.502Z,6.40
2023-01-01T08:26:32.086Z,6.20
2023-01-01T08:29:04.347Z,5.80
2023-01-01T08:31:33.511Z,6.10
2023-01-01T08:34:02.015Z,5.50
2023-01-01T08:36:30.363Z,5.20
2023-01-01T08:38:58.904Z,5.30
2023-01-01T08:41:27.191Z,5.80
2023-01-01T08:43:55.508Z,6.40
2023-01-01T08:46:23.943Z,5.90
2023-01-01T08:48:52.415Z,11.50
2023-01-01T08:51:21.497Z,18.30
2023-01-01T08:53:51.405Z,16.90
2023-01-01T08:56:20.656Z,13.30
2023-01-01T08:58:49.906Z,9.90
2023-01-01T09:01:22.375Z,7.60
2023-01-01T09:03:51.006Z,9.90
2023-01-01T09:06:19.972Z,8.60
2023-01-01T09:08:48.386Z,8.80
2023-01-01T09:11:28.498Z,9.70
2023-01-01T09:13:56.917Z,9.20
2023-01-01T09:16:25.597Z,9.20
2023-01-01T09:18:53.977Z,10.10
2023-01-01T09:21:22.418Z,8.70
2023-01-01T09:23:50.798Z,7.40
2023-01-01T09:26:19.228Z,7.90
2023-01-01T09:28:47.565Z,6.50
2023-01-01T09:31:16.086Z,6.90
2023-01-01T09:33:44.904Z,7.00
2023-01-01T09:36:23.503Z,6.20
2023-01-01T09:38:53.490Z,5.60
2023-01-01T09:41:33.741Z,6.60
2023-01-01T09:44:25.217Z,7.20
2023-01-01T09:46:54.899Z,8.00
2023-01-01T09:49:38.508Z,12.00
2023-01-01T09:52:07.334Z,9.90
2023-01-01T09:54:56.038Z,6.60
2023-01-01T09:57:32.167Z,7.20
2023-01-01T10:00:03.833Z,7.80
2023-01-01T10:02:51.753Z,8.70
2023-01-01T10:05:43.380Z,7.10
2023-01-01T10:08:23.690Z,7.60
2023-01-01T10:10:58.350Z,7.20
2023-01-01T10:13:46.208Z,7.00
2023-01-01T10:16:34.421Z,7.40
2023-01-01T10:19:24.903Z,8.90
2023-01-01T10:21:58.326Z,8.80
2023-01-01T10:24:36.612Z,9.70
2023-01-01T10:27:06.870Z,7.60
2023-01-01T10:30:01.316Z,8.70
2023-01-01T10:32:39.386Z,7.00
2023-01-01T10:35:15.058Z,8.30
2023-01-01T10:37:44.889Z,7.90
2023-01-01T10:40:22.749Z,7.50
2023-01-01T10:42:54.592Z,8.10
2023-01-01T10:45:35.679Z,7.50
2023-01-01T10:48:21.277Z,8.10
2023-01-01T10:50:54.828Z,7.80
2023-01-01T10:53:28.385Z,8.00
2023-01-01T10:56:04.546Z,7.50
2023-01-01T10:58:52.284Z,7.90
2023-01-01T11:01:25.013Z,7.30
2023-01-01T11:04:17.471Z,6.70
2023-01-01T11:06:48.003Z,7.50
2023-01-01T11:09:33.383Z,8.30
2023-01-01T11:12:19.109Z,6.80
2023-01-01T11:14:59.587Z,7.30
2023-01-01T11:17:31.669Z,7.50
2023-01-01T11:20:05.577Z,7.20
2023-01-01T11:23:17.759Z,7.60
2023-01-01T11:26:13.441Z,7.40
2023-01-01T11:29:02.701Z,6.90
2023-01-01T11:31:39.238Z,7.40
2023-01-01T11:34:36.372Z,7.70
2023-01-01T11:37:26.216Z,7.10
2023-01-01T11:40:03.972Z,7.40
2023-01-01T11:42:35.935Z,6.80
2023-01-01T11:45:23.236Z,6.90
2023-01-01T11:48:00.360Z,7.20
2023-01-01T11:50:30.796Z,7.60
2023-01-01T11:53:19.419Z,7.70
2023-01-01T11:55:47.629Z,8.10
2023-01-01T11:58:38.351Z,8.40
2023-01-01T12:01:31.859Z,7.30
2023-01-01T12:04:06.639Z,7.00
2023-01-01T12:06:46.878Z,7.60
2023-01-01T12:10:24.731Z,6.30
2023-01-01T12:13:13.578Z,7.00
2023-01-01T12:15:56.178Z,7.50
2023-01-01T12:18:42.766Z,7.50
2023-01-01T12:21:36.176Z,7.00
2023-01-01T12:24:10.098Z,6.60
2023-01-01T12:27:10.337Z,8.50
2023-01-01T12:30:01.651Z,8.60
2023-01-01T12:32:51.494Z,8.90
2023-01-01T12:35:29.395Z,7.60
2023-01-01T12:38:19.631Z,8.00
2023-01-01T12:41:23.052Z,7.00
2023-01-01T12:43:54.603Z,7.60
2023-01-01T12:46:58.916Z,7.70
2023-01-01T12:49:39.309Z,7.90
2023-01-01T12:52:40.288Z,7.40
2023-01-01T12:55:31.345Z,7.40
2023-01-01T12:58:21.404Z,6.00
2023-01-01T13:01:12.382Z,7.00
2023-01-01T13:04:22.783Z,7.00
2023-01-01T13:07:06.611Z,7.20
2023-01-01T13:10:05.541Z,6.90
2023-01-01T13:12:47.152Z,6.50
2023-01-01T13:15:37.389Z,6.80
2023-01-01T13:18:07.496Z,7.40
2023-01-01T13:20:42.444Z,7.50
2023-01-01T13:23:29.356Z,7.60
2023-01-01T13:26:31.934Z,7.90
2023-01-01T13:29:03.980Z,7.10
2023-01-01T13:31:39.527Z,7.50
2023-01-01T13:34:41.259Z,7.20
2023-01-01T13:37:17.371Z,7.50
2023-01-01T13:40:01.364Z,7.50
2023-01-01T13:42:59.007Z,7.90
2023-01-01T13:46:11.233Z,8.60
2023-01-01T13:49:03.015Z,7.00
2023-01-01T13:52:07.932Z,7.40
2023-01-01T13:55:00.237Z,7.40
2023-01-01T13:57:44.020Z,7.60
2023-01-01T14:00:32.695Z,7.50
2023-01-01T14:03:07.122Z,8.20
2023-01-01T14:05:43.074Z,9.20
2023-01-01T14:08:34.399Z,8.40
2023-01-01T14:11:22.523Z,8.00
2023-01-01T14:13:51.134Z,7.60
2023-01-01T14:16:19.589Z,8.20
2023-01-01T14:18:51.161Z,8.20
2023-01-01T14:21:23.488Z,8.90
2023-01-01T14:23:59.593Z,9.00
2023-01-01T14:26:35.913Z,9.10
2023-01-01T14:29:14.144Z,7.90
2023-01-01T14:31:46.338Z,9.10
2023-01-01T14:34:31.603Z,8.70
2023-01-01T14:37:12.430Z,8.40
2023-01-01T14:39:51.424Z,7.70
2023-01-01T14:42:30.188Z,9.00
2023-01-01T14:44:59.568Z,8.50
2023-01-01T14:47:36.104Z,9.10
2023-01-01T14:50:29.164Z,8.50
2023-01-01T14:53:12.230Z,9.50
2023-01-01T14:55:45.995Z,9.70
2023-01-01T14:58:21.123Z,9.40
2023-01-01T15:00:51.460Z,10.90
2023-01-01T15:03:22.679Z,10.00
2023-01-01T15:06:03.727Z,9.60
2023-01-01T15:08:32.463Z,12.00
2023-01-01T15:11:03.881Z,12.40
2023-01-01T15:13:32.237Z,15.90
2023-01-01T15:16:18.776Z,14.40
2023-01-01T15:18:50.896Z,14.30
2023-01-01T15:21:31.206Z,14.90
2023-01-01T15:24:11.497Z,17.60
2023-01-01T15:26:44.669Z,17.20
2023-01-01T15:29:24.107Z,15.90
2023-01-01T15:31:57.528Z,13.70
2023-01-01T15:34:32.615Z,12.80
2023-01-01T15:37:19.420Z,12.60
2023-01-01T15:39:51.389Z,13.70
2023-01-01T15:42:22.808Z,13.30
2023-01-01T15:44:51.179Z,13.90
2023-01-01T15:47:26.602Z,14.90
2023-01-01T15:50:26.451Z,14.10
2023-01-01T15:52:59.379Z,18.70
2023-01-01T15:55:32.381Z,21.00
2023-01-01T15:58:03.221Z,18.40
2023-01-01T16:00:38.795Z,18.80
2023-01-01T16:03:20.401Z,23.50
2023-01-01T16:05:52.243Z,22.00
2023-01-01T16:08:20.530Z,22.00
2023-01-01T16:10:51.235Z,24.30
2023-01-01T16:13:19.630Z,19.80
2023-01-01T16:16:32.438Z,17.30
2023-01-01T16:19:01.331Z,18.60
2023-01-01T16:21:34.945Z,18.00
2023-01-01T16:24:03.419Z,20.10
2023-01-01T16:26:31.777Z,13.30
2023-01-01T16:29:00.113Z,14.40
2023-01-01T16:31:28.826Z,13.30
2023-01-01T16:34:04.352Z,16.00
2023-01-01T16:36:32.914Z,19.80
2023-01-01T16:39:01.357Z,23.00
2023-01-01T16:41:31.860Z,21.40
2023-01-01T16:44:01.037Z,21.90
2023-01-01T16:46:29.535Z,28.90
2023-01-01T16:48:58.452Z,36.10
2023-01-01T16:51:31.514Z,60.80
2023-01-01T16:54:01.189Z,95.90
2023-01-01T16:56:30.497Z,108.80
2023-01-01T16:59:03.250Z,72.30
2023-01-01T17:01:32.558Z,64.00
2023-01-01T17:04:01.395Z,50.00
2023-01-01T17:06:29.891Z,43.70
2023-01-01T17:09:01.691Z,34.10
2023-01-01T17:11:30.659Z,30.80
2023-01-01T17:13:59.909Z,29.60
2023-01-01T17:16:34.447Z,32.80
2023-01-01T17:19:21.136Z,32.00
2023-01-01T17:21:50.612Z,39.60
2023-01-01T17:24:20.526Z,39.10
2023-01-01T17:26:54.090Z,33.40
2023-01-01T17:29:24.217Z,37.70
2023-01-01T17:31:53.891Z,43.50
2023-01-01T17:34:22.280Z,36.20
2023-01-01T17:36:50.809Z,37.80
2023-01-01T17:39:19.117Z,35.10
2023-01-01T17:41:48.973Z,28.90
2023-01-01T17:44:18.466Z,43.60
2023-01-01T17:46:46.948Z,35.40
2023-01-01T17:49:16.067Z,33.40
2023-01-01T17:51:44.649Z,29.20
2023-01-01T17:54:13.924Z,20.90
2023-01-01T17:56:42.973Z,19.20
2023-01-01T17:59:12.316Z,20.20
2023-01-01T18:01:40.804Z,17.00
2023-01-01T18:04:11.066Z,17.60
2023-01-01T18:06:43.593Z,18.10
2023-01-01T18:09:17.092Z,18.10
2023-01-01T18:11:45.844Z,20.50
2023-01-01T18:14:18.359Z,21.70
2023-01-01T18:16:51.682Z,19.90
2023-01-01T18:19:20.852Z,20.50
2023-01-01T18:21:49.426Z,25.00
2023-01-01T18:24:19.236Z,23.90
2023-01-01T18:26:50.226Z,21.70
2023-01-01T18:29:19.737Z,24.70
2023-01-01T18:31:52.259Z,24.00
2023-01-01T18:34:21.779Z,27.40
2023-01-01T18:36:50.260Z,22.00
2023-01-01T18:39:27.467Z,20.70
2023-01-01T18:41:55.900Z,18.00
2023-01-01T18:44:28.539Z,19.80
2023-01-01T18:47:02.410Z,20.80
2023-01-01T18:49:52.719Z,17.90
2023-01-01T18:52:23.076Z,18.40
2023-01-01T18:55:07.950Z,19.50
2023-01-01T18:57:40.231Z,18.30
2023-01-01T19:00:26.248Z,21.00
2023-01-01T19:03:00.786Z,21.20
2023-01-01T19:08:08.307Z,21.50
2023-01-01T19:10:47.757Z,19.50
2023-01-01T19:13:32.053Z,21.90
2023-01-01T19:16:11.979Z,20.30
2023-01-01T19:18:44.129Z,19.40
2023-01-01T19:21:12.777Z,18.30
2023-01-01T19:23:51.330Z,16.80
2023-01-01T19:26:26.130Z,16.90
2023-01-01T19:29:19.777Z,17.30
2023-01-01T19:31:51.641Z,17.60
2023-01-01T19:34:20.983Z,18.10
2023-01-01T19:36:50.833Z,18.60
2023-01-01T19:39:21.517Z,20.50
2023-01-01T19:41:52.919Z,20.50
2023-01-01T19:44:24.968Z,19.20
2023-01-01T19:46:54.360Z,17.90
2023-01-01T19:49:24.131Z,18.40
2023-01-01T19:51:52.693Z,17.60
2023-01-01T19:54:21.013Z,17.90
2023-01-01T19:56:50.668Z,18.90
2023-01-01T19:59:22.737Z,17.30
2023-01-01T20:02:25.826Z,15.90
2023-01-01T20:04:43.385Z,15.70
2023-01-01T20:07:14.587Z,15.60
2023-01-01T20:09:44.242Z,15.60
2023-01-01T20:12:14.291Z,14.50
2023-01-01T20:14:42.805Z,16.00
2023-01-01T20:17:11.648Z,14.40
2023-01-01T20:19:42.546Z,15.30
2023-01-01T20:22:17.926Z,15.80
2023-01-01T20:24:46.515Z,17.10
2023-01-01T20:27:18.033Z,14.60
2023-01-01T20:29:46.551Z,13.70
2023-01-01T20:32:16.438Z,13.30
2023-01-01T20:34:45.921Z,12.90
2023-01-01T20:37:33.095Z,13.10
2023-01-01T20:40:05.557Z,11.30
2023-01-01T20:42:34.038Z,12.00
2023-01-01T20:45:07.921Z,13.10
2023-01-01T20:47:37.233Z,13.50
2023-01-01T20:50:07.008Z,11.90
2023-01-01T20:52:35.408Z,13.50
2023-01-01T20:55:04.213Z,11.70
2023-01-01T20:57:32.848Z,11.70
2023-01-01T21:00:03.076Z,12.30
2023-01-01T21:02:31.591Z,11.70
2023-01-01T21:05:00.680Z,11.60
2023-01-01T21:07:29.103Z,11.20
2023-01-01T21:09:57.407Z,11.40
2023-01-01T21:12:25.746Z,10.70
2023-01-01T21:14:56.181Z,11.70
2023-01-01T21:17:24.817Z,11.00
2023-01-01T21:19:56.908Z,11.80
2023-01-01T21:22:26.871Z,12.10
2023-01-01T21:25:16.916Z,12.00
2023-01-01T21:27:46.352Z,12.40
2023-01-01T21:30:15.712Z,11.30
2023-01-01T21:32:51.193Z,11.80
2023-01-01T21:35:23.775Z,12.00
2023-01-01T21:37:57.418Z,10.70
2023-01-01T21:40:39.907Z,11.20
2023-01-01T21:43:08.273Z,9.90
2023-01-01T21:45:38.566Z,10.30
2023-01-01T21:48:20.219Z,11.20
2023-01-01T21:50:52.086Z,13.00
2023-01-01T21:53:24.690Z,12.90
2023-01-01T21:55:55.554Z,11.90
2023-01-01T21:58:52.247Z,11.70
2023-01-01T22:01:36.718Z,11.20
2023-01-01T22:04:08.148Z,10.30
2023-01-01T22:06:39.012Z,11.00
2023-01-01T22:09:13.147Z,11.20
2023-01-01T22:11:41.716Z,11.30
2023-01-01T22:14:19.902Z,11.00
2023-01-01T22:16:51.829Z,10.50
2023-01-01T22:19:23.793Z,11.10
2023-01-01T22:21:53.525Z,11.80
2023-01-01T22:24:27.582Z,11.60
2023-01-01T22:26:57.662Z,11.90
2023-01-01T22:29:26.958Z,11.70
2023-01-01T22:32:33.129Z,12.30
2023-01-01T22:37:41.170Z,10.10
2023-01-01T22:40:29.451Z,11.60
2023-01-01T22:43:02.835Z,10.30
2023-01-01T22:45:33.524Z,10.70
2023-01-01T22:48:05.951Z,10.70
2023-01-01T22:50:34.602Z,11.60
2023-01-01T22:53:02.938Z,10.80
2023-01-01T22:55:31.220Z,12.10
2023-01-01T22:57:59.569Z,12.40
2023-01-01T23:00:27.914Z,13.90
2023-01-01T23:02:56.345Z,13.40
2023-01-01T23:05:24.791Z,13.20
2023-01-01T23:07:53.588Z,13.90
2023-01-01T23:10:22.067Z,16.60
2023-01-01T23:12:50.433Z,16.00
2023-01-01T23:15:37.582Z,15.20
2023-01-01T23:18:09.543Z,15.00
2023-01-01T23:20:37.906Z,18.10
2023-01-01T23:23:07.318Z,31.40
2023-01-01T23:25:35.704Z,32.20
2023-01-01T23:28:04.213Z,24.80
2023-01-01T23:30:33.665Z,25.00
2023-01-01T23:33:02.107Z,21.90
2023-01-01T23:35:30.412Z,22.10
2023-01-01T23:38:00.630Z,20.40
2023-01-01T23:40:29.056Z,19.80
2023-01-01T23:42:58.786Z,17.70
2023-01-01T23:45:27.930Z,16.70
2023-01-01T23:47:57.258Z,14.70
2023-01-01T23:50:25.729Z,13.90
2023-01-01T23:52:53.992Z,12.10
2023-01-01T23:55:23.031Z,11.00
2023-01-01T23:57:52.568Z,21.70
